Terminal Aerodrome Forecast
Issued by NWS Birmingham, AL

Current Version | Previous Version | Text Only | Print | Product List | Glossary On
Versions: 1 2 3 4 5 6 7 8 9 10 11 12 13
669
FTUS44 KBMX 092324
TAFBHM
TAF
KBHM 092324Z 1000/1024 30012G18KT P6SM BKN060
     FM100200 30007KT P6SM SCT050
     FM101500 29011G18KT P6SM SKC=

USA.gov is the U.S. government's official web portal to all federal, state and local government web resources and services.